Rehoboth Beach, DE (19971)

4:03 PM EDT on August 29, 2015 (GMT -0400)
Funland and the Boardwalk | | Change Station
CLOSE
Current Station
Personal Weather Station
Location: Rehoboth Beach, DE
Elevation: 33 ft
Nearby Weather Stations

Elev 33 ft 38.71 °N, 75.08 °W | Updated 23 hours ago

Clear
Clear
79 °F
Feels Like 79 °F
N
11
Wind Variable Wind from SSE
Gusts mph

Today
High -- | Low -- °F
--% Chance of Precip.
Yesterday
High -- | Low -- °F
Precip. -- in
6:26 AM 7:35 PM
Full, 100% visible
Pressure 30.15 in
Visibility 10.0 miles
Clouds Overcast 5500 ft
Dew Point 59 °F
Humidity 49%
Rainfall in
Snow Depth Not available.
UV 2.1 out of 12
Pollen 9.60 out of 12
Air Quality Not available.
Flu Activity Not available.
METAR KGED 291954Z AUTO 22007KT 10SM OVC055 29/16 A3015 RMK AO2 SLP209 T02940156
Pressure 30.15 in
Visibility 10.0 miles
Clouds Overcast 5500 ft
Dew Point 59 °F
Humidity 49%
Rainfall in
Snow Depth Not available.
UV 2.1 out of 12
Pollen 9.60 out of 12
Air Quality Not available.
Flu Activity Not available.
METAR KGED 291954Z AUTO 22007KT 10SM OVC055 29/16 A3015 RMK AO2 SLP209 T02940156

10-Day Weather Forecast

×

Almanac

Astronomy

Aug. 29, 2015 Rise Set
Actual Time
Civil Twilight
Nautical Twilight
Astronomical Twilight
Moon
Length of Visible Light
Length of Day
Tomorrow will be .
, % of the Moon is Illuminated

Today's Extremes

State Highs State Lows

Community

WunderPhotos

Upload Photos

1,850,793 photos uploaded!

WunderBlogs® & News

Nearby

Air Quality

  Air Quality AQ Index Pollutant
Not available.

Snow Depth

Station Depth Elevation

Earthquake Activity

City Distance Mag. Time & Date
Minimum magnitude displayed is 2.5.

Coastal Water Temperatures

Place Temperature

Stations

Nearby Weather Stations

Station Location Temp. Windchill Dew Point Humidity Wind Precip. Elev Updated Type